地図

経路データ

SID SEASON NUMBER BASIN SUBBASIN NAME ISO_TIME NATURE LAT LON WMO_WIND WMO_PRES WMO_AGENCY TRACK_TYPE DIST2LAND LANDFALL IFLAG USA_AGENCY USA_ATCF_ID USA_LAT USA_LON USA_RECORD USA_STATUS USA_WIND USA_PRES USA_SSHS USA_R34_NE USA_R34_SE USA_R34_SW USA_R34_NW USA_R50_NE USA_R50_SE USA_R50_SW USA_R50_NW USA_R64_NE USA_R64_SE USA_R64_SW USA_R64_NW USA_POCI USA_ROCI USA_RMW USA_EYE TOKYO_LAT TOKYO_LON TOKYO_GRADE TOKYO_WIND TOKYO_PRES TOKYO_R50_DIR TOKYO_R50_LONG TOKYO_R50_SHORT TOKYO_R30_DIR TOKYO_R30_LONG TOKYO_R30_SHORT TOKYO_LAND CMA_LAT CMA_LON CMA_CAT CMA_WIND CMA_PRES HKO_LAT HKO_LON HKO_CAT HKO_WIND HKO_PRES NEWDELHI_LAT NEWDELHI_LON NEWDELHI_GRADE NEWDELHI_WIND NEWDELHI_PRES NEWDELHI_CI NEWDELHI_DP NEWDELHI_POCI REUNION_LAT REUNION_LON REUNION_TYPE REUNION_WIND REUNION_PRES REUNION_TNUM REUNION_CI REUNION_RMW REUNION_R34_NE REUNION_R34_SE REUNION_R34_SW REUNION_R34_NW REUNION_R50_NE REUNION_R50_SE REUNION_R50_SW REUNION_R50_NW REUNION_R64_NE REUNION_R64_SE REUNION_R64_SW REUNION_R64_NW BOM_LAT BOM_LON BOM_TYPE BOM_WIND BOM_PRES BOM_TNUM BOM_CI BOM_RMW BOM_R34_NE BOM_R34_SE BOM_R34_SW BOM_R34_NW BOM_R50_NE BOM_R50_SE BOM_R50_SW BOM_R50_NW BOM_R64_NE BOM_R64_SE BOM_R64_SW BOM_R64_NW BOM_ROCI BOM_POCI BOM_EYE BOM_POS_METHOD BOM_PRES_METHOD NADI_LAT NADI_LON NADI_CAT NADI_WIND NADI_PRES WELLINGTON_LAT WELLINGTON_LON WELLINGTON_WIND WELLINGTON_PRES DS824_LAT DS824_LON DS824_STAGE DS824_WIND DS824_PRES TD9636_LAT TD9636_LON TD9636_STAGE TD9636_WIND TD9636_PRES TD9635_LAT TD9635_LON TD9635_WIND TD9635_PRES TD9635_ROCI NEUMANN_LAT NEUMANN_LON NEUMANN_CLASS NEUMANN_WIND NEUMANN_PRES MLC_LAT MLC_LON MLC_CLASS MLC_WIND MLC_PRES USA_GUST BOM_GUST BOM_GUST_PER REUNION_GUST REUNION_GUST_PER USA_SEAHGT USA_SEARAD_NE USA_SEARAD_SE USA_SEARAD_SW USA_SEARAD_NW STORM_SPEED STORM_DIR
2020005S16121 2020 2 SI WA BLAKE 2020-01-05 00:00:00 NR -15.8000 121.000 main 200 200 O_____________ jtwc_sh SH062020 -15.8000 121.000 DB 20 1003 -3 1005 245 70 5 15
2020005S16121 2020 2 SI WA BLAKE 2020-01-05 03:00:00 NR -15.5800 121.055 main 208 208 P_____________ SH062020 -15.5800 121.055 DB 22 1001 -3 1005 232 70 4 13
2020005S16121 2020 2 SI WA BLAKE 2020-01-05 06:00:00 TS -15.4000 121.100 main 224 224 O_____________ jtwc_sh SH062020 -15.4000 121.100 TD 25 1000 -1 1005 220 70 3 16
2020005S16121 2020 2 SI WA BLAKE 2020-01-05 09:00:00 TS -15.2975 121.135 main 231 224 P_____________ SH062020 -15.2975 121.135 TD 30 998 -1 1005 220 65 1 43
2020005S16121 2020 2 SI WA BLAKE 2020-01-05 12:00:00 TS -15.3000 121.200 main 224 208 O_____________ jtwc_sh SH062020 -15.3000 121.200 TS 35 997 0 125 120 130 90 1005 220 60 2 122
2020005S16121 2020 2 SI WA BLAKE 2020-01-05 15:00:00 TS -15.4050 121.320 main 208 177 P_____________ SH062020 -15.4050 121.320 TS 37 995 0 117 112 117 77 1004 220 60 4 136
2020005S16121 2020 2 SI WA BLAKE 2020-01-05 18:00:00 TS -15.6000 121.500 main 177 146 O_____________ jtwc_sh SH062020 -15.6000 121.500 TS 40 993 0 110 105 105 65 1003 220 60 6 133
2020005S16121 2020 2 SI WA BLAKE 2020-01-05 21:00:00 TS -15.7976 121.750 main 139 100 P_____________ SH062020 -15.7976 121.750 TS 45 992 0 100 115 112 62 1004 235 60 7 136
2020005S16121 2020 2 SI WA BLAKE 2020-01-06 00:00:00 TS -16.1000 122.000 main 100 46 O_____________ jtwc_sh SH062020 -16.1000 122.000 TS 50 991 0 90 125 120 60 1005 250 60 9 152
2020005S16121 2020 2 SI WA BLAKE 2020-01-06 03:00:00 TS -16.6075 122.195 main 46 0 P_____________ SH062020 -16.6075 122.195 TS 52 990 0 95 115 115 70 1005 242 45 10 164
2020005S16121 2020 2 SI WA BLAKE 2020-01-06 06:00:00 TS -17.1000 122.300 main 0 0 O_____________ jtwc_sh SH062020 -17.1000 122.300 TS 55 989 0 100 105 110 80 15 15 25 30 1005 235 30 65 8 174
2020005S16121 2020 2 SI WA BLAKE 2020-01-06 09:00:00 TS -17.3525 122.280 main 0 0 P_____________ SH062020 -17.3525 122.280 TS 52 990 0 115 105 105 82 17 17 27 32 1005 235 25 4 193
2020005S16121 2020 2 SI WA BLAKE 2020-01-06 12:00:00 TS -17.5000 122.200 main 0 0 O_____________ jtwc_sh SH062020 -17.5000 122.200 TS 50 992 0 130 105 100 85 20 20 30 35 1005 235 20 3 200
2020005S16121 2020 2 SI WA BLAKE 2020-01-06 15:00:00 TS -17.6425 122.172 main 0 0 P_____________ SH062020 -17.6425 122.172 TS 50 991 0 130 80 100 85 15 15 30 35 1004 237 20 3 197
2020005S16121 2020 2 SI WA BLAKE 2020-01-06 18:00:00 TS -17.8000 122.100 main 10 10 O_____________ jtwc_sh SH062020 -17.8000 122.100 TS 50 990 0 130 55 100 85 10 10 30 35 1003 240 20 5 211
2020005S16121 2020 2 SI WA BLAKE 2020-01-06 21:00:00 TS -18.0350 121.923 main 31 23 P_____________ SH062020 -18.0350 121.923 TS 42 994 0 110 45 87 80 1003 240 20 6 217
2020005S16121 2020 2 SI WA BLAKE 2020-01-07 00:00:00 TS -18.3000 121.700 main 23 15 O_____________ jtwc_sh SH062020 -18.3000 121.700 TS 35 998 0 90 35 75 75 1003 240 20 6 220
2020005S16121 2020 2 SI WA BLAKE 2020-01-07 03:00:00 TS -18.5275 121.492 main 23 21 P_____________ SH062020 -18.5275 121.492 TS 35 996 0 60 32 75 75 1002 232 20 6 217
2020005S16121 2020 2 SI WA BLAKE 2020-01-07 06:00:00 TS -18.8000 121.300 main 38 15 O_____________ jtwc_sh SH062020 -18.8000 121.300 TS 35 994 0 30 30 75 75 1001 225 20 45 7 205
2020005S16121 2020 2 SI WA BLAKE 2020-01-07 09:00:00 TS -19.1849 121.165 main 15 0 P_____________ SH062020 -19.1849 121.165 TS 37 993 0 1001 202 20 9 199
2020005S16121 2020 2 SI WA BLAKE 2020-01-07 12:00:00 TS -19.6000 121.000 main 0 0 O_____________ jtwc_sh SH062020 -19.6000 121.000 TS 40 992 0 1001 180 20 9 207
2020005S16121 2020 2 SI WA BLAKE 2020-01-07 15:00:00 TS -20.0025 120.730 main 0 0 P_____________ SH062020 -20.0025 120.730 TS 40 992 0 1001 180 20 9 219
2020005S16121 2020 2 SI WA BLAKE 2020-01-07 18:00:00 TS -20.3000 120.400 main 0 0 O_____________ jtwc_sh SH062020 -20.3000 120.400 TS 40 992 0 1001 180 20 8 241
2020005S16121 2020 2 SI WA BLAKE 2020-01-07 21:00:00 TS -20.3727 120.005 main 0 0 P_____________ SH062020 -20.3727 120.005 TS 37 993 0 1001 180 20 7 261
2020005S16121 2020 2 SI WA BLAKE 2020-01-08 00:00:00 TS -20.4000 119.700 main 0 0 O_____________ jtwc_sh SH062020 -20.4000 119.700 TS 35 994 0 1001 180 20 4 240
2020005S16121 2020 2 SI WA BLAKE 2020-01-08 03:00:00 TS -20.5624 119.655 main 0 0 P_____________ SH062020 -20.5624 119.655 TS 32 995 -1 999 180 20 4 0
2020005S16121 2020 2 SI WA BLAKE 2020-01-08 06:00:00 TS -20.8000 119.700 main 0 0 O_____________ jtwc_sh SH062020 -20.8000 119.700 TD 30 996 -1 998 180 20 5 185
2020005S16121 2020 2 SI WA BLAKE 2020-01-08 09:00:00 TS -21.0700 119.620 main 0 0 P_____________ SH062020 -21.0700 119.620 TD 30 995 -1 999 185 20 6 189
2020005S16121 2020 2 SI WA BLAKE 2020-01-08 12:00:00 TS -21.4000 119.600 main 0 0 O_____________ jtwc_sh SH062020 -21.4000 119.600 TD 30 995 -1 1000 190 20 7 169
2020005S16121 2020 2 SI WA BLAKE 2020-01-08 15:00:00 TS -21.7776 119.770 main 0 0 P_____________ SH062020 -21.7776 119.770 TD 30 997 -1 999 177 20 9 155
2020005S16121 2020 2 SI WA BLAKE 2020-01-08 18:00:00 TS -22.2000 120.000 main 0 0 O_____________ jtwc_sh SH062020 -22.2000 120.000 TD 30 1000 -1 999 165 20 9 158
2020005S16121 2020 2 SI WA BLAKE 2020-01-08 21:00:00 TS -22.6424 120.150 main 0 0 P_____________ SH062020 -22.6424 120.150 TD 27 999 -1 1000 162 20 9 163
2020005S16121 2020 2 SI WA BLAKE 2020-01-09 00:00:00 TS -23.1000 120.300 main 0 0 O_____________ jtwc_sh SH062020 -23.1000 120.300 TD 25 998 -1 1001 160 20 10 161
2020005S16121 2020 2 SI WA BLAKE 2020-01-09 03:00:00 TS -23.5425 120.493 main 0 0 P_____________ SH062020 -23.5425 120.493 TD 25 999 -1 1001 160 20 10 158
2020005S16121 2020 2 SI WA BLAKE 2020-01-09 06:00:00 TS -24.0000 120.700 main 0 0 O_____________ jtwc_sh SH062020 -24.0000 120.700 TD 25 1000 -1 1002 160 20 10 161
2020005S16121 2020 2 SI WA BLAKE 2020-01-09 09:00:00 TS -24.5147 120.855 main 0 0 P_____________ SH062020 -24.5147 120.855 TD 22 1000 -1 1002 130 20 11 160
2020005S16121 2020 2 SI WA BLAKE 2020-01-09 12:00:00 NR -25.0000 121.100 main 0 0 O_____________ jtwc_sh SH062020 -25.0000 121.100 DB 20 1000 -3 1002 100 20 11 146
2020005S16121 2020 2 SI WA BLAKE 2020-01-09 15:00:00 NR -25.4021 121.510 main 0 0 P_____________ SH062020 -25.4021 121.510 DB 20 1000 -3 1002 102 20 11 128
2020005S16121 2020 2 SI WA BLAKE 2020-01-09 18:00:00 NR -25.7000 122.100 main 0 0 O_____________ jtwc_sh SH062020 -25.7000 122.100 DB 20 1000 -3 1002 105 20 13 112
2020005S16121 2020 2 SI WA BLAKE 2020-01-09 21:00:00 NR -25.8837 122.855 main 0 0 P_____________ SH062020 -25.8837 122.855 DB 20 1002 -3 1003 100 20 15 102
2020005S16121 2020 2 SI WA BLAKE 2020-01-10 00:00:00 NR -26.0000 123.700 main 0 O_____________ jtwc_sh SH062020 -26.0000 123.700 DB 20 1004 -3 1005 95 20 15 99

IBTrACS Databaseについて

本データベースは、米国NOAAが公開する1842年以降の世界の熱帯低気圧のベストトラックデータアーカイブInternational Best Track Archive for Climate Stewardship (IBTrACS)を、ウェブで閲覧しやすい形式に変換したものです。

最終更新日:2022-01-26